sensor_id;sensor_type;location;lat;lon;timestamp;pressure;altitude;pressure_sealevel;temperature;humidity
38912;BME280;28444;48.056;14.408;2023-03-19T00:00:26;97313.31;;;5.34;84.32
38912;BME280;28444;48.056;14.408;2023-03-19T00:02:53;97315.81;;;5.32;84.55
38912;BME280;28444;48.056;14.408;2023-03-19T00:05:20;97315.19;;;5.18;84.90
38912;BME280;28444;48.056;14.408;2023-03-19T00:07:47;97322.41;;;5.16;85.28
38912;BME280;28444;48.056;14.408;2023-03-19T00:10:13;97324.03;;;5.19;85.05
38912;BME280;28444;48.056;14.408;2023-03-19T00:12:40;97322.25;;;5.21;84.49
38912;BME280;28444;48.056;14.408;2023-03-19T00:15:07;97319.69;;;5.16;84.65
38912;BME280;28444;48.056;14.408;2023-03-19T00:17:40;97321.25;;;5.11;85.28
38912;BME280;28444;48.056;14.408;2023-03-19T00:20:10;97325.91;;;5.03;85.61
38912;BME280;28444;48.056;14.408;2023-03-19T00:22:38;97330.59;;;5.02;87.06
38912;BME280;28444;48.056;14.408;2023-03-19T00:25:06;97317.44;;;5.06;87.28
38912;BME280;28444;48.056;14.408;2023-03-19T00:27:34;97317.84;;;5.11;87.20
38912;BME280;28444;48.056;14.408;2023-03-19T00:30:04;97315.28;;;5.05;86.66
38912;BME280;28444;48.056;14.408;2023-03-19T00:32:31;97317.66;;;5.09;86.31
38912;BME280;28444;48.056;14.408;2023-03-19T00:34:59;97312.41;;;5.11;87.11
38912;BME280;28444;48.056;14.408;2023-03-19T00:37:26;97314.72;;;5.06;86.60
38912;BME280;28444;48.056;14.408;2023-03-19T00:39:53;97323.91;;;5.03;86.50
38912;BME280;28444;48.056;14.408;2023-03-19T00:42:19;97329.34;;;5.03;87.11
38912;BME280;28444;48.056;14.408;2023-03-19T00:44:46;97322.25;;;5.00;87.20
38912;BME280;28444;48.056;14.408;2023-03-19T00:47:13;97320.09;;;4.99;86.81
38912;BME280;28444;48.056;14.408;2023-03-19T00:49:40;97324.47;;;5.02;86.28
38912;BME280;28444;48.056;14.408;2023-03-19T00:52:06;97324.59;;;4.96;86.49
38912;BME280;28444;48.056;14.408;2023-03-19T00:54:33;97329.41;;;4.90;86.35
38912;BME280;28444;48.056;14.408;2023-03-19T00:57:00;97328.16;;;4.91;86.43
38912;BME280;28444;48.056;14.408;2023-03-19T00:59:27;97319.63;;;4.87;86.58
38912;BME280;28444;48.056;14.408;2023-03-19T01:01:53;97316.72;;;4.85;86.94
38912;BME280;28444;48.056;14.408;2023-03-19T01:04:20;97318.81;;;4.79;87.45
38912;BME280;28444;48.056;14.408;2023-03-19T01:06:48;97318.44;;;4.75;87.85
38912;BME280;28444;48.056;14.408;2023-03-19T01:09:16;97320.13;;;4.65;88.13
38912;BME280;28444;48.056;14.408;2023-03-19T01:11:42;97320.94;;;4.73;87.52
38912;BME280;28444;48.056;14.408;2023-03-19T01:14:09;97317.53;;;4.72;88.00
38912;BME280;28444;48.056;14.408;2023-03-19T01:16:36;97313.66;;;4.68;87.51
38912;BME280;28444;48.056;14.408;2023-03-19T01:19:02;97317.44;;;4.65;87.86
38912;BME280;28444;48.056;14.408;2023-03-19T01:21:29;97311.94;;;4.57;87.62
38912;BME280;28444;48.056;14.408;2023-03-19T01:23:57;97313.72;;;4.54;87.75
38912;BME280;28444;48.056;14.408;2023-03-19T01:26:24;97322.38;;;4.53;88.07
38912;BME280;28444;48.056;14.408;2023-03-19T01:28:51;97327.19;;;4.47;88.83
38912;BME280;28444;48.056;14.408;2023-03-19T01:31:18;97325.88;;;4.40;89.18
38912;BME280;28444;48.056;14.408;2023-03-19T01:33:45;97325.88;;;4.27;89.30
38912;BME280;28444;48.056;14.408;2023-03-19T01:36:12;97324.31;;;4.31;89.03
38912;BME280;28444;48.056;14.408;2023-03-19T01:38:39;97327.22;;;4.33;88.91
38912;BME280;28444;48.056;14.408;2023-03-19T01:41:06;97342.34;;;4.29;89.38
38912;BME280;28444;48.056;14.408;2023-03-19T01:43:33;97332.16;;;4.22;89.62
38912;BME280;28444;48.056;14.408;2023-03-19T01:46:11;97329.44;;;4.22;89.36
38912;BME280;28444;48.056;14.408;2023-03-19T01:48:45;97319.84;;;4.21;89.45
38912;BME280;28444;48.056;14.408;2023-03-19T01:51:16;97320.28;;;4.25;90.04
38912;BME280;28444;48.056;14.408;2023-03-19T01:53:50;97327.47;;;4.22;89.59
38912;BME280;28444;48.056;14.408;2023-03-19T01:56:24;97327.34;;;4.28;89.47
38912;BME280;28444;48.056;14.408;2023-03-19T01:58:56;97330.91;;;4.23;89.95
38912;BME280;28444;48.056;14.408;2023-03-19T02:01:23;97339.56;;;4.21;90.55
38912;BME280;28444;48.056;14.408;2023-03-19T02:03:52;97346.19;;;4.20;90.46
38912;BME280;28444;48.056;14.408;2023-03-19T02:06:19;97339.97;;;4.25;91.32
38912;BME280;28444;48.056;14.408;2023-03-19T02:08:48;97336.84;;;4.21;90.76
38912;BME280;28444;48.056;14.408;2023-03-19T02:11:15;97348.41;;;4.22;89.91
38912;BME280;28444;48.056;14.408;2023-03-19T02:13:42;97341.94;;;4.25;90.04
38912;BME280;28444;48.056;14.408;2023-03-19T02:16:09;97344.84;;;4.27;89.39
38912;BME280;28444;48.056;14.408;2023-03-19T02:18:36;97341.28;;;4.32;89.14
38912;BME280;28444;48.056;14.408;2023-03-19T02:21:08;97341.72;;;4.36;88.44
38912;BME280;28444;48.056;14.408;2023-03-19T02:24:02;97339.50;;;4.34;88.68
38912;BME280;28444;48.056;14.408;2023-03-19T02:26:34;97342.69;;;4.12;90.50
38912;BME280;28444;48.056;14.408;2023-03-19T02:29:03;97341.03;;;4.09;90.27
38912;BME280;28444;48.056;14.408;2023-03-19T02:31:31;97339.75;;;4.10;91.86
38912;BME280;28444;48.056;14.408;2023-03-19T02:33:59;97338.00;;;4.13;91.25
38912;BME280;28444;48.056;14.408;2023-03-19T02:36:32;97342.16;;;4.14;90.70
38912;BME280;28444;48.056;14.408;2023-03-19T02:39:05;97340.91;;;4.15;90.28
38912;BME280;28444;48.056;14.408;2023-03-19T02:41:33;97341.63;;;4.15;89.52
38912;BME280;28444;48.056;14.408;2023-03-19T02:44:03;97357.38;;;4.03;90.55
38912;BME280;28444;48.056;14.408;2023-03-19T02:46:30;97353.75;;;3.74;90.84
38912;BME280;28444;48.056;14.408;2023-03-19T02:48:57;97361.88;;;3.74;91.14
38912;BME280;28444;48.056;14.408;2023-03-19T02:51:24;97362.56;;;3.88;90.78
38912;BME280;28444;48.056;14.408;2023-03-19T02:53:51;97356.97;;;3.86;91.57
38912;BME280;28444;48.056;14.408;2023-03-19T02:56:17;97348.72;;;3.92;91.45
38912;BME280;28444;48.056;14.408;2023-03-19T02:58:44;97342.06;;;4.06;90.65
38912;BME280;28444;48.056;14.408;2023-03-19T03:01:11;97351.22;;;4.16;90.63
38912;BME280;28444;48.056;14.408;2023-03-19T03:03:37;97363.47;;;4.17;89.93
38912;BME280;28444;48.056;14.408;2023-03-19T03:06:04;97375.69;;;4.10;89.92
38912;BME280;28444;48.056;14.408;2023-03-19T03:08:31;97363.63;;;3.98;89.53
38912;BME280;28444;48.056;14.408;2023-03-19T03:10:58;97359.25;;;3.95;90.32
38912;BME280;28444;48.056;14.408;2023-03-19T03:13:25;97358.53;;;3.95;90.60
38912;BME280;28444;48.056;14.408;2023-03-19T03:15:53;97360.72;;;3.83;91.19
38912;BME280;28444;48.056;14.408;2023-03-19T03:18:20;97360.31;;;3.79;91.64
38912;BME280;28444;48.056;14.408;2023-03-19T03:20:47;97360.19;;;3.71;91.73
38912;BME280;28444;48.056;14.408;2023-03-19T03:23:14;97365.09;;;3.73;91.99
38912;BME280;28444;48.056;14.408;2023-03-19T03:25:40;97364.38;;;3.85;91.54
38912;BME280;28444;48.056;14.408;2023-03-19T03:28:07;97366.03;;;3.89;92.63
38912;BME280;28444;48.056;14.408;2023-03-19T03:30:34;97371.31;;;3.94;91.90
38912;BME280;28444;48.056;14.408;2023-03-19T03:33:01;97371.13;;;3.92;90.98
38912;BME280;28444;48.056;14.408;2023-03-19T03:35:28;97378.81;;;3.75;90.99
38912;BME280;28444;48.056;14.408;2023-03-19T03:37:55;97374.66;;;3.74;91.09
38912;BME280;28444;48.056;14.408;2023-03-19T03:40:23;97383.69;;;3.76;91.07
38912;BME280;28444;48.056;14.408;2023-03-19T03:42:50;97378.09;;;3.74;90.97
38912;BME280;28444;48.056;14.408;2023-03-19T03:45:17;97376.44;;;3.71;90.69
38912;BME280;28444;48.056;14.408;2023-03-19T03:47:44;97372.78;;;3.69;90.89
38912;BME280;28444;48.056;14.408;2023-03-19T03:50:11;97369.66;;;3.65;90.98
38912;BME280;28444;48.056;14.408;2023-03-19T03:52:39;97372.56;;;3.67;91.90
38912;BME280;28444;48.056;14.408;2023-03-19T03:55:08;97369.66;;;3.65;91.49
38912;BME280;28444;48.056;14.408;2023-03-19T03:57:35;97377.06;;;3.64;91.69
38912;BME280;28444;48.056;14.408;2023-03-19T04:00:03;97380.06;;;3.60;92.28
38912;BME280;28444;48.056;14.408;2023-03-19T04:02:30;97379.00;;;3.50;92.26
38912;BME280;28444;48.056;14.408;2023-03-19T04:04:57;97381.63;;;3.56;92.87
38912;BME280;28444;48.056;14.408;2023-03-19T04:07:23;97383.16;;;3.51;92.74
38912;BME280;28444;48.056;14.408;2023-03-19T04:09:50;97382.13;;;3.54;92.89
38912;BME280;28444;48.056;14.408;2023-03-19T04:12:17;97372.34;;;3.51;93.64
38912;BME280;28444;48.056;14.408;2023-03-19T04:14:43;97374.25;;;3.56;93.79
38912;BME280;28444;48.056;14.408;2023-03-19T04:17:10;97379.13;;;3.58;94.28
38912;BME280;28444;48.056;14.408;2023-03-19T04:19:37;97380.06;;;3.60;93.51
38912;BME280;28444;48.056;14.408;2023-03-19T04:22:04;97380.69;;;3.53;93.93
38912;BME280;28444;48.056;14.408;2023-03-19T04:24:33;97378.16;;;3.55;93.19
38912;BME280;28444;48.056;14.408;2023-03-19T04:26:59;97378.38;;;3.57;93.13
38912;BME280;28444;48.056;14.408;2023-03-19T04:29:27;97379.53;;;3.62;92.53
38912;BME280;28444;48.056;14.408;2023-03-19T04:31:54;97384.09;;;3.54;93.07
38912;BME280;28444;48.056;14.408;2023-03-19T04:34:20;97379.22;;;3.52;92.98
38912;BME280;28444;48.056;14.408;2023-03-19T04:36:47;97383.88;;;3.52;92.08
38912;BME280;28444;48.056;14.408;2023-03-19T04:39:14;97378.38;;;3.44;92.42
38912;BME280;28444;48.056;14.408;2023-03-19T04:41:40;97379.84;;;3.45;91.80
38912;BME280;28444;48.056;14.408;2023-03-19T04:44:07;97386.78;;;3.41;91.81
38912;BME280;28444;48.056;14.408;2023-03-19T04:46:34;97374.47;;;3.26;93.39
38912;BME280;28444;48.056;14.408;2023-03-19T04:49:00;97366.28;;;3.32;93.08
38912;BME280;28444;48.056;14.408;2023-03-19T04:51:27;97372.63;;;3.21;92.65
38912;BME280;28444;48.056;14.408;2023-03-19T04:53:54;97379.47;;;3.22;92.50
38912;BME280;28444;48.056;14.408;2023-03-19T04:56:21;97391.84;;;3.18;93.67
38912;BME280;28444;48.056;14.408;2023-03-19T04:58:47;97385.19;;;3.19;95.10
38912;BME280;28444;48.056;14.408;2023-03-19T05:01:14;97381.88;;;3.26;94.27
38912;BME280;28444;48.056;14.408;2023-03-19T05:03:41;97388.41;;;3.30;93.55
38912;BME280;28444;48.056;14.408;2023-03-19T05:06:08;97387.50;;;3.28;93.56
38912;BME280;28444;48.056;14.408;2023-03-19T05:08:35;97403.91;;;3.30;93.75
38912;BME280;28444;48.056;14.408;2023-03-19T05:11:02;97404.63;;;3.30;93.95
38912;BME280;28444;48.056;14.408;2023-03-19T05:13:31;97407.53;;;3.19;94.43
38912;BME280;28444;48.056;14.408;2023-03-19T05:15:57;97403.72;;;3.28;94.74
38912;BME280;28444;48.056;14.408;2023-03-19T05:18:24;97413.41;;;3.36;93.85
38912;BME280;28444;48.056;14.408;2023-03-19T05:20:51;97412.03;;;3.30;93.76
38912;BME280;28444;48.056;14.408;2023-03-19T05:23:18;97411.94;;;3.35;93.60
38912;BME280;28444;48.056;14.408;2023-03-19T05:25:45;97419.81;;;3.33;94.82
38912;BME280;28444;48.056;14.408;2023-03-19T05:28:13;97414.66;;;3.35;95.58
38912;BME280;28444;48.056;14.408;2023-03-19T05:30:40;97416.53;;;3.41;95.13
38912;BME280;28444;48.056;14.408;2023-03-19T05:33:06;97426.31;;;3.44;94.42
38912;BME280;28444;48.056;14.408;2023-03-19T05:35:37;97428.31;;;3.56;94.86
38912;BME280;28444;48.056;14.408;2023-03-19T05:38:04;97426.97;;;3.63;94.34
38912;BME280;28444;48.056;14.408;2023-03-19T05:40:31;97419.59;;;3.64;94.44
38912;BME280;28444;48.056;14.408;2023-03-19T05:43:00;97416.88;;;3.64;94.13
38912;BME280;28444;48.056;14.408;2023-03-19T05:45:27;97424.78;;;3.61;94.32
38912;BME280;28444;48.056;14.408;2023-03-19T05:47:54;97425.09;;;3.58;94.52
38912;BME280;28444;48.056;14.408;2023-03-19T05:50:21;97439.44;;;3.66;94.10
38912;BME280;28444;48.056;14.408;2023-03-19T05:52:47;97443.63;;;3.67;94.34
38912;BME280;28444;48.056;14.408;2023-03-19T05:55:14;97449.25;;;3.82;93.64
38912;BME280;28444;48.056;14.408;2023-03-19T05:57:41;97446.97;;;3.86;92.73
38912;BME280;28444;48.056;14.408;2023-03-19T06:00:08;97445.09;;;3.95;92.79
38912;BME280;28444;48.056;14.408;2023-03-19T06:02:35;97446.97;;;3.86;92.97
38912;BME280;28444;48.056;14.408;2023-03-19T06:05:03;97446.03;;;3.84;92.92
38912;BME280;28444;48.056;14.408;2023-03-19T06:07:30;97457.81;;;3.86;92.51
38912;BME280;28444;48.056;14.408;2023-03-19T06:09:57;97462.19;;;3.90;92.61
38912;BME280;28444;48.056;14.408;2023-03-19T06:12:24;97468.19;;;3.96;92.16
38912;BME280;28444;48.056;14.408;2023-03-19T06:14:50;97477.25;;;3.98;91.31
38912;BME280;28444;48.056;14.408;2023-03-19T06:17:17;97481.13;;;4.16;90.46
38912;BME280;28444;48.056;14.408;2023-03-19T06:19:44;97487.69;;;4.21;90.13
38912;BME280;28444;48.056;14.408;2023-03-19T06:22:10;97493.09;;;4.21;90.22
38912;BME280;28444;48.056;14.408;2023-03-19T06:24:37;97504.56;;;4.27;89.76
38912;BME280;28444;48.056;14.408;2023-03-19T06:27:04;97499.88;;;4.41;89.45
38912;BME280;28444;48.056;14.408;2023-03-19T06:29:32;97511.06;;;4.98;87.67
38912;BME280;28444;48.056;14.408;2023-03-19T06:31:59;97509.97;;;5.48;84.30
38912;BME280;28444;48.056;14.408;2023-03-19T06:34:26;97514.66;;;5.14;84.94
38912;BME280;28444;48.056;14.408;2023-03-19T06:36:53;97508.75;;;5.02;85.75
38912;BME280;28444;48.056;14.408;2023-03-19T06:39:20;97506.63;;;4.74;87.57
38912;BME280;28444;48.056;14.408;2023-03-19T06:41:47;97509.47;;;4.55;88.34
38912;BME280;28444;48.056;14.408;2023-03-19T06:44:13;97516.84;;;4.54;89.04
38912;BME280;28444;48.056;14.408;2023-03-19T06:46:40;97520.91;;;4.61;89.07
38912;BME280;28444;48.056;14.408;2023-03-19T06:49:07;97528.09;;;4.58;89.09
38912;BME280;28444;48.056;14.408;2023-03-19T06:51:34;97520.59;;;4.65;89.56
38912;BME280;28444;48.056;14.408;2023-03-19T06:54:01;97523.91;;;4.71;90.08
38912;BME280;28444;48.056;14.408;2023-03-19T06:56:27;97536.44;;;4.74;89.82
38912;BME280;28444;48.056;14.408;2023-03-19T06:58:55;97539.00;;;4.93;89.84
38912;BME280;28444;48.056;14.408;2023-03-19T07:01:21;97542.84;;;4.97;89.15
38912;BME280;28444;48.056;14.408;2023-03-19T07:03:48;97540.44;;;5.07;88.65
38912;BME280;28444;48.056;14.408;2023-03-19T07:06:15;97528.44;;;5.16;88.93
38912;BME280;28444;48.056;14.408;2023-03-19T07:08:42;97516.94;;;5.23;89.63
38912;BME280;28444;48.056;14.408;2023-03-19T07:11:12;97522.53;;;5.38;87.92
38912;BME280;28444;48.056;14.408;2023-03-19T07:13:39;97537.66;;;5.54;87.68
38912;BME280;28444;48.056;14.408;2023-03-19T07:16:06;97534.91;;;5.68;87.29
38912;BME280;28444;48.056;14.408;2023-03-19T07:18:34;97542.66;;;5.85;86.47
38912;BME280;28444;48.056;14.408;2023-03-19T07:21:01;97535.06;;;6.04;85.69
38912;BME280;28444;48.056;14.408;2023-03-19T07:23:27;97547.34;;;6.26;84.99
38912;BME280;28444;48.056;14.408;2023-03-19T07:25:54;97544.72;;;6.41;84.31
38912;BME280;28444;48.056;14.408;2023-03-19T07:28:21;97549.69;;;6.50;83.38
38912;BME280;28444;48.056;14.408;2023-03-19T07:30:50;97541.56;;;6.58;83.97
38912;BME280;28444;48.056;14.408;2023-03-19T07:33:19;97540.03;;;6.78;83.11
38912;BME280;28444;48.056;14.408;2023-03-19T07:35:46;97535.38;;;6.86;82.06
38912;BME280;28444;48.056;14.408;2023-03-19T07:38:13;97539.38;;;6.93;81.44
38912;BME280;28444;48.056;14.408;2023-03-19T07:40:40;97548.06;;;6.91;81.55
38912;BME280;28444;48.056;14.408;2023-03-19T07:43:24;97548.81;;;6.99;81.12
38912;BME280;28444;48.056;14.408;2023-03-19T07:45:51;97552.50;;;7.10;80.49
38912;BME280;28444;48.056;14.408;2023-03-19T07:48:18;97547.97;;;7.12;80.35
38912;BME280;28444;48.056;14.408;2023-03-19T07:50:45;97542.00;;;7.21;79.51
38912;BME280;28444;48.056;14.408;2023-03-19T07:53:12;97536.59;;;7.29;78.62
38912;BME280;28444;48.056;14.408;2023-03-19T07:55:38;97541.16;;;7.34;77.84
38912;BME280;28444;48.056;14.408;2023-03-19T07:58:05;97547.69;;;7.39;77.72
38912;BME280;28444;48.056;14.408;2023-03-19T08:00:32;97559.50;;;7.49;77.33
38912;BME280;28444;48.056;14.408;2023-03-19T08:02:59;97559.31;;;7.55;77.43
38912;BME280;28444;48.056;14.408;2023-03-19T08:05:26;97551.16;;;7.62;76.94
38912;BME280;28444;48.056;14.408;2023-03-19T08:07:53;97549.00;;;7.61;77.00
38912;BME280;28444;48.056;14.408;2023-03-19T08:10:19;97545.72;;;7.62;76.50
38912;BME280;28444;48.056;14.408;2023-03-19T08:12:47;97543.38;;;7.59;75.21
38912;BME280;28444;48.056;14.408;2023-03-19T08:15:14;97539.91;;;7.58;75.69
38912;BME280;28444;48.056;14.408;2023-03-19T08:17:41;97549.38;;;7.65;76.47
38912;BME280;28444;48.056;14.408;2023-03-19T08:20:15;97557.91;;;7.77;76.63
38912;BME280;28444;48.056;14.408;2023-03-19T08:22:42;97561.03;;;7.88;76.69
38912;BME280;28444;48.056;14.408;2023-03-19T08:25:10;97555.94;;;8.00;75.06
38912;BME280;28444;48.056;14.408;2023-03-19T08:27:37;97563.75;;;8.11;75.61
38912;BME280;28444;48.056;14.408;2023-03-19T08:30:05;97557.56;;;8.11;75.27
38912;BME280;28444;48.056;14.408;2023-03-19T08:32:34;97561.38;;;8.08;75.88
38912;BME280;28444;48.056;14.408;2023-03-19T08:35:01;97564.81;;;8.16;75.83
38912;BME280;28444;48.056;14.408;2023-03-19T08:37:28;97560.09;;;8.24;75.75
38912;BME280;28444;48.056;14.408;2023-03-19T08:39:55;97556.28;;;8.27;75.54
38912;BME280;28444;48.056;14.408;2023-03-19T08:42:22;97564.09;;;8.38;75.30
38912;BME280;28444;48.056;14.408;2023-03-19T08:44:49;97554.69;;;8.39;75.27
38912;BME280;28444;48.056;14.408;2023-03-19T08:47:15;97553.22;;;8.38;75.24
38912;BME280;28444;48.056;14.408;2023-03-19T08:49:42;97557.03;;;8.51;74.01
38912;BME280;28444;48.056;14.408;2023-03-19T08:52:09;97563.38;;;8.61;74.18
38912;BME280;28444;48.056;14.408;2023-03-19T08:54:36;97568.25;;;8.70;73.79
38912;BME280;28444;48.056;14.408;2023-03-19T08:57:03;97565.31;;;8.83;72.98
38912;BME280;28444;48.056;14.408;2023-03-19T08:59:30;97567.97;;;8.99;73.15
38912;BME280;28444;48.056;14.408;2023-03-19T09:01:59;97568.84;;;9.09;72.15
38912;BME280;28444;48.056;14.408;2023-03-19T09:04:27;97570.50;;;9.12;72.59
38912;BME280;28444;48.056;14.408;2023-03-19T09:06:54;97567.91;;;9.14;70.67
38912;BME280;28444;48.056;14.408;2023-03-19T09:09:22;97572.09;;;9.23;70.57
38912;BME280;28444;48.056;14.408;2023-03-19T09:11:49;97580.19;;;9.38;69.62
38912;BME280;28444;48.056;14.408;2023-03-19T09:14:16;97566.41;;;9.28;68.89
38912;BME280;28444;48.056;14.408;2023-03-19T09:16:45;97565.25;;;9.39;68.59
38912;BME280;28444;48.056;14.408;2023-03-19T09:19:12;97566.69;;;9.40;68.34
38912;BME280;28444;48.056;14.408;2023-03-19T09:21:39;97572.31;;;9.50;69.62
38912;BME280;28444;48.056;14.408;2023-03-19T09:24:06;97566.38;;;9.69;68.27
38912;BME280;28444;48.056;14.408;2023-03-19T09:26:32;97573.50;;;9.64;69.57
38912;BME280;28444;48.056;14.408;2023-03-19T09:28:59;97571.28;;;9.70;68.78
38912;BME280;28444;48.056;14.408;2023-03-19T09:31:26;97568.84;;;9.82;67.69
38912;BME280;28444;48.056;14.408;2023-03-19T09:33:55;97569.84;;;9.94;67.02
38912;BME280;28444;48.056;14.408;2023-03-19T09:36:22;97573.78;;;10.01;67.15
38912;BME280;28444;48.056;14.408;2023-03-19T09:38:48;97566.44;;;10.11;66.93
38912;BME280;28444;48.056;14.408;2023-03-19T09:44:28;97562.31;;;10.27;66.69
38912;BME280;28444;48.056;14.408;2023-03-19T09:49:52;97564.06;;;10.57;67.61
38912;BME280;28444;48.056;14.408;2023-03-19T09:52:30;97569.75;;;10.69;67.58
38912;BME280;28444;48.056;14.408;2023-03-19T09:55:04;97560.59;;;10.74;67.19
38912;BME280;28444;48.056;14.408;2023-03-19T09:57:37;97555.91;;;10.84;66.61
38912;BME280;28444;48.056;14.408;2023-03-19T10:02:44;97556.53;;;11.10;66.44
38912;BME280;28444;48.056;14.408;2023-03-19T10:05:45;97563.72;;;11.05;66.83
38912;BME280;28444;48.056;14.408;2023-03-19T10:14:17;97568.66;;;10.90;66.87
38912;BME280;28444;48.056;14.408;2023-03-19T10:16:52;97572.56;;;10.96;67.52
38912;BME280;28444;48.056;14.408;2023-03-19T10:19:23;97560.41;;;11.07;67.74
38912;BME280;28444;48.056;14.408;2023-03-19T10:21:58;97568.75;;;11.26;67.14
38912;BME280;28444;48.056;14.408;2023-03-19T10:24:36;97565.13;;;11.24;66.63
38912;BME280;28444;48.056;14.408;2023-03-19T10:27:25;97565.25;;;11.43;65.61
38912;BME280;28444;48.056;14.408;2023-03-19T10:29:54;97563.94;;;11.17;65.99
38912;BME280;28444;48.056;14.408;2023-03-19T10:32:37;97550.41;;;11.19;66.37
38912;BME280;28444;48.056;14.408;2023-03-19T10:35:36;97553.78;;;11.27;67.03
38912;BME280;28444;48.056;14.408;2023-03-19T10:38:18;97551.44;;;11.24;66.88
38912;BME280;28444;48.056;14.408;2023-03-19T10:43:57;97541.84;;;11.32;66.24
38912;BME280;28444;48.056;14.408;2023-03-19T10:46:25;97555.28;;;11.38;67.45
38912;BME280;28444;48.056;14.408;2023-03-19T10:48:52;97549.59;;;11.53;67.61
38912;BME280;28444;48.056;14.408;2023-03-19T10:51:23;97544.22;;;11.73;65.86
38912;BME280;28444;48.056;14.408;2023-03-19T10:53:53;97544.31;;;11.65;65.40
38912;BME280;28444;48.056;14.408;2023-03-19T10:56:27;97552.59;;;11.75;65.41
38912;BME280;28444;48.056;14.408;2023-03-19T10:59:04;97553.25;;;11.93;65.61
38912;BME280;28444;48.056;14.408;2023-03-19T11:01:32;97559.09;;;12.07;64.34
38912;BME280;28444;48.056;14.408;2023-03-19T11:04:01;97543.19;;;11.95;64.05
38912;BME280;28444;48.056;14.408;2023-03-19T11:06:36;97540.91;;;12.11;64.83
38912;BME280;28444;48.056;14.408;2023-03-19T11:11:44;97544.28;;;12.29;64.89
38912;BME280;28444;48.056;14.408;2023-03-19T11:14:40;97549.00;;;12.19;65.17
38912;BME280;28444;48.056;14.408;2023-03-19T11:17:21;97540.66;;;12.26;64.05
38912;BME280;28444;48.056;14.408;2023-03-19T11:19:58;97538.19;;;12.31;64.49
38912;BME280;28444;48.056;14.408;2023-03-19T11:22:34;97545.13;;;12.22;63.54
38912;BME280;28444;48.056;14.408;2023-03-19T11:25:13;97541.06;;;12.23;63.89
38912;BME280;28444;48.056;14.408;2023-03-19T11:27:41;97536.03;;;12.29;62.81
38912;BME280;28444;48.056;14.408;2023-03-19T11:30:18;97532.28;;;12.34;62.92
38912;BME280;28444;48.056;14.408;2023-03-19T11:33:11;97527.41;;;12.33;63.80
38912;BME280;28444;48.056;14.408;2023-03-19T11:35:45;97532.28;;;12.34;63.72
38912;BME280;28444;48.056;14.408;2023-03-19T11:38:27;97526.97;;;12.56;62.58
38912;BME280;28444;48.056;14.408;2023-03-19T11:41:00;97521.22;;;12.81;62.98
38912;BME280;28444;48.056;14.408;2023-03-19T11:52:15;97505.78;;;12.75;61.93
38912;BME280;28444;48.056;14.408;2023-03-19T11:55:15;97501.72;;;12.76;62.26
38912;BME280;28444;48.056;14.408;2023-03-19T11:59:08;97498.25;;;12.86;61.74
38912;BME280;28444;48.056;14.408;2023-03-19T12:04:40;97491.13;;;13.12;62.77
38912;BME280;28444;48.056;14.408;2023-03-19T12:07:25;97490.53;;;13.13;61.83
38912;BME280;28444;48.056;14.408;2023-03-19T12:13:29;97480.72;;;13.10;61.24
38912;BME280;28444;48.056;14.408;2023-03-19T12:19:20;97485.34;;;13.27;62.21
38912;BME280;28444;48.056;14.408;2023-03-19T12:25:25;97489.34;;;13.36;62.22
38912;BME280;28444;48.056;14.408;2023-03-19T12:28:05;97486.59;;;13.36;62.28
38912;BME280;28444;48.056;14.408;2023-03-19T12:30:59;97496.56;;;13.41;60.80
38912;BME280;28444;48.056;14.408;2023-03-19T12:36:02;97482.03;;;13.60;61.61
38912;BME280;28444;48.056;14.408;2023-03-19T12:38:57;97488.72;;;13.57;61.39
38912;BME280;28444;48.056;14.408;2023-03-19T12:41:27;97485.50;;;13.60;62.13
38912;BME280;28444;48.056;14.408;2023-03-19T12:44:21;97484.88;;;13.40;61.94
38912;BME280;28444;48.056;14.408;2023-03-19T12:46:57;97485.06;;;13.64;62.27
38912;BME280;28444;48.056;14.408;2023-03-19T12:49:34;97485.09;;;13.85;61.57
38912;BME280;28444;48.056;14.408;2023-03-19T12:52:15;97484.91;;;13.93;61.38
38912;BME280;28444;48.056;14.408;2023-03-19T12:54:47;97480.69;;;14.02;61.89
38912;BME280;28444;48.056;14.408;2023-03-19T12:57:46;97481.34;;;14.12;61.10
38912;BME280;28444;48.056;14.408;2023-03-19T13:03:12;97473.44;;;14.28;60.86
38912;BME280;28444;48.056;14.408;2023-03-19T13:06:15;97478.28;;;14.17;60.98
38912;BME280;28444;48.056;14.408;2023-03-19T13:08:48;97476.16;;;14.06;60.92
38912;BME280;28444;48.056;14.408;2023-03-19T13:17:24;97454.16;;;13.85;62.52
38912;BME280;28444;48.056;14.408;2023-03-19T13:19:53;97450.75;;;13.96;61.34
38912;BME280;28444;48.056;14.408;2023-03-19T13:22:25;97452.41;;;14.11;62.47
38912;BME280;28444;48.056;14.408;2023-03-19T13:24:54;97453.97;;;14.35;62.75
38912;BME280;28444;48.056;14.408;2023-03-19T13:27:32;97453.97;;;14.35;61.48
38912;BME280;28444;48.056;14.408;2023-03-19T13:30:20;97448.66;;;14.49;61.62
38912;BME280;28444;48.056;14.408;2023-03-19T13:33:01;97444.19;;;14.44;62.94
38912;BME280;28444;48.056;14.408;2023-03-19T13:35:48;97439.22;;;14.52;62.60
38912;BME280;28444;48.056;14.408;2023-03-19T13:38:26;97433.53;;;14.60;61.97
38912;BME280;28444;48.056;14.408;2023-03-19T13:40:57;97441.25;;;14.52;62.83
38912;BME280;28444;48.056;14.408;2023-03-19T13:43:51;97440.97;;;14.48;62.36
38912;BME280;28444;48.056;14.408;2023-03-19T13:46:39;97439.88;;;14.41;63.54
38912;BME280;28444;48.056;14.408;2023-03-19T13:49:26;97433.53;;;14.38;63.98
38912;BME280;28444;48.056;14.408;2023-03-19T13:51:56;97440.09;;;14.33;63.49
38912;BME280;28444;48.056;14.408;2023-03-19T13:54:44;97428.66;;;14.49;63.70
38912;BME280;28444;48.056;14.408;2023-03-19T13:59:48;97420.38;;;14.37;64.22
38912;BME280;28444;48.056;14.408;2023-03-19T14:02:43;97421.47;;;14.43;63.69
38912;BME280;28444;48.056;14.408;2023-03-19T14:05:18;97424.66;;;14.50;63.46
38912;BME280;28444;48.056;14.408;2023-03-19T14:07:52;97425.09;;;14.46;63.98
38912;BME280;28444;48.056;14.408;2023-03-19T14:10:23;97425.38;;;14.50;64.14